Estación Meteorológica Peña el Pijo (Robertgarden) [ 01/30/23 15:17:14 CET ]

Fecha Hora Presion(HPa) Temp (°C) Humedad % Rocio (°C) Viento ( m/s) Direccion Lluvia 1Hora(mm) Lluvia 24H(mm) LLuvia Total(mm)
2010-Aug-24 01:01:15 1012.900 16.4 62 9.1         152.29
2010-Aug-24 02:01:15 1012.700 20.1 49 9.1         152.29
2010-Aug-24 03:01:14 1012.200 19.5 52 9.4         152.29
2010-Aug-24 04:01:17 1012.200 18.8 53 9.0         152.29
2010-Aug-24 05:01:16 1012.000 16.6 62 9.3         152.29
2010-Aug-24 06:01:13 1012.000 15.6 67 9.5         152.29
2010-Aug-24 07:01:15 1011.800 15.1 69 9.5         152.29
2010-Aug-24 08:01:21 1012.100 15.8 65 9.2         152.29
2010-Aug-24 09:01:13 1012.300 20.9 55 11.5         152.29
2010-Aug-24 10:01:17 1012.700 25.4 35 8.7         152.29
2010-Aug-24 11:01:14 1013.100 28.4 30 9.2         152.29
2010-Aug-24 12:01:15 1013.800 31.1 25 8.5         152.29
2010-Aug-24 13:01:15 1013.400 32.9 22 8.2         152.29
2010-Aug-24 14:01:15 1013.300 35.3 18 7.0         152.29
2010-Aug-24 15:01:16 1013.500 35.4 17 6.1         152.29
2010-Aug-24 16:01:16 1013.300 35.5 17 6.2 1.7 SSW     152.29
2010-Aug-24 17:01:37 1012.800 36.2 18 7.8         152.29
2010-Aug-24 18:01:39 1013.000 35.3 17 6.0         152.29
2010-Aug-24 19:01:38 1013.100 33.2 16 3.4         152.29
2010-Aug-24 20:01:41 1013.600 28.4 22 4.5         152.29
2010-Aug-24 21:01:19 1014.300 23.6 34 6.7         152.29
2010-Aug-24 22:01:16 1015.200 19.9 43 6.9         152.29
2010-Aug-24 23:01:20 1015.700 18.7 48 7.4         152.29

Temperatura Máxima:36°    Temperatura Mínima:15°
Presión Máxima:1015.700 Hpa    Presión Mínima:1011.800 Hpa


Volver